This is the latest recevied weather packets stored in our database for station/object K8ZAS. If no packets are shown the sender has not sent any weather packets the latest 10 day(s).
| Time | Temp. | Humidity | Pressure | Rain* | Wind** | Luminosity | Snow |
|---|---|---|---|---|---|---|---|
| 1778037918 | 0.56° C | 91% | 1016.6 hPa | 0 mm | - | 0 W/m² | - |
| 1778033717 | 0.56° C | 90% | 1015.5 hPa | 0 mm | - | 1 W/m² | - |
| 1778025919 | 3.89° C | 62% | 1014.5 hPa | 0 mm | - | 46 W/m² | - |
| 1778024116 | 3.89° C | 72% | 1014.2 hPa | 0 mm | - | 126 W/m² | - |
| 1778019318 | 7.78° C | 41% | 1012.2 hPa | 0 mm | - | 153 W/m² | - |
| 1778017518 | 7.78° C | 40% | 1012.1 hPa | 0 mm | - | 179 W/m² | - |
| 1778016318 | 7.22° C | 41% | 1012 hPa | 0 mm | - | 268 W/m² | - |
| 1778015139 | 7.22° C | 41% | 1012.2 hPa | 0 mm | - | 191 W/m² | - |
| 1778011520 | 7.78° C | 42% | 1012.6 hPa | 0 mm | - | 296 W/m² | - |
| 1778010317 | 8.33° C | 39% | 1012.5 hPa | 0 mm | - | 408 W/m² | - |
| 1778009118 | 8.89° C | 37% | 1012.4 hPa | 0 mm | - | 542 W/m² | - |
| 1778007919 | 8.89° C | 38% | 1012.4 hPa | 0 mm | - | 665 W/m² | - |
| 1778000717 | 7.22° C | 47% | 1013.3 hPa | 0 mm | - | 337 W/m² | - |
| 1778000117 | 6.67° C | 46% | 1013.3 hPa | 0 mm | - | 320 W/m² | - |
| 1777999518 | 6.67° C | 47% | 1013.3 hPa | 0 mm | - | 288 W/m² | - |
| 1777997124 | 6.67° C | 50% | 1013.6 hPa | 0 mm | - | 280 W/m² | - |
| 1777991726 | 5° C | 69% | 1014.5 hPa | 0 mm | - | 152 W/m² | - |
| 1777987527 | 3.89° C | 88% | 1013.2 hPa | 0 mm | - | 42 W/m² | - |
| 1777986927 | 3.89° C | 87% | 1013.1 hPa | 0 mm | - | 36 W/m² | - |
| 1777986347 | 3.89° C | 87% | 1013 hPa | 0 mm | - | 28 W/m² | - |
| 1777985128 | 3.33° C | 88% | 1013 hPa | 0 mm | - | 8 W/m² | - |
| 1777981529 | 3.33° C | 88% | 1012.9 hPa | 0 mm | - | 0 W/m² | - |
| 1777979729 | 3.33° C | 87% | 1012.9 hPa | 0 mm | - | 0 W/m² | - |
| 1777979130 | 3.33° C | 87% | 1013 hPa | 0 mm | - | 0 W/m² | - |
| 1777976116 | 3.89° C | 86% | 1012.9 hPa | 0 mm | - | 0 W/m² | - |
* Rain latest hour (hover to see other rain measurements)
** Current wind speed in m/s (hover to see current wind gust speed)